sensor_id;sensor_type;location;lat;lon;timestamp;P1;durP1;ratioP1;P2;durP2;ratioP2
65463;SDS011;52063;45.110;9.870;2022-07-01T00:00:57;3.20;;;1.70;;
65463;SDS011;52063;45.110;9.870;2022-07-01T00:03:23;1.80;;;1.57;;
65463;SDS011;52063;45.110;9.870;2022-07-01T00:05:48;1.98;;;1.80;;
65463;SDS011;52063;45.110;9.870;2022-07-01T00:08:14;2.97;;;1.70;;
65463;SDS011;52063;45.110;9.870;2022-07-01T00:10:39;2.60;;;1.90;;
65463;SDS011;52063;45.110;9.870;2022-07-01T00:13:05;2.10;;;1.30;;
65463;SDS011;52063;45.110;9.870;2022-07-01T00:15:31;2.45;;;1.60;;
65463;SDS011;52063;45.110;9.870;2022-07-01T00:17:57;1.93;;;1.50;;
65463;SDS011;52063;45.110;9.870;2022-07-01T00:20:23;2.08;;;1.70;;
65463;SDS011;52063;45.110;9.870;2022-07-01T00:22:48;2.67;;;1.57;;
65463;SDS011;52063;45.110;9.870;2022-07-01T00:25:14;2.42;;;1.60;;
65463;SDS011;52063;45.110;9.870;2022-07-01T00:27:40;2.23;;;1.90;;
65463;SDS011;52063;45.110;9.870;2022-07-01T00:30:06;1.33;;;1.23;;
65463;SDS011;52063;45.110;9.870;2022-07-01T00:32:33;2.70;;;1.50;;
65463;SDS011;52063;45.110;9.870;2022-07-01T00:34:59;2.00;;;1.40;;
65463;SDS011;52063;45.110;9.870;2022-07-01T00:37:24;2.85;;;1.38;;
65463;SDS011;52063;45.110;9.870;2022-07-01T00:39:50;1.30;;;1.10;;
65463;SDS011;52063;45.110;9.870;2022-07-01T00:42:15;3.63;;;1.40;;
65463;SDS011;52063;45.110;9.870;2022-07-01T00:44:41;2.27;;;1.20;;
65463;SDS011;52063;45.110;9.870;2022-07-01T00:47:10;1.80;;;1.00;;
65463;SDS011;52063;45.110;9.870;2022-07-01T00:49:37;1.60;;;1.00;;
65463;SDS011;52063;45.110;9.870;2022-07-01T00:52:04;1.20;;;0.80;;
65463;SDS011;52063;45.110;9.870;2022-07-01T00:54:30;2.42;;;1.05;;
65463;SDS011;52063;45.110;9.870;2022-07-01T00:56:56;1.75;;;1.00;;
65463;SDS011;52063;45.110;9.870;2022-07-01T00:59:22;1.43;;;1.00;;
65463;SDS011;52063;45.110;9.870;2022-07-01T01:01:48;3.05;;;0.90;;
65463;SDS011;52063;45.110;9.870;2022-07-01T01:04:13;1.97;;;1.17;;
65463;SDS011;52063;45.110;9.870;2022-07-01T01:06:39;2.30;;;1.00;;
65463;SDS011;52063;45.110;9.870;2022-07-01T01:09:05;1.30;;;1.17;;
65463;SDS011;52063;45.110;9.870;2022-07-01T01:11:30;2.15;;;1.10;;
65463;SDS011;52063;45.110;9.870;2022-07-01T01:13:57;2.83;;;1.00;;
65463;SDS011;52063;45.110;9.870;2022-07-01T01:16:23;2.13;;;0.95;;
65463;SDS011;52063;45.110;9.870;2022-07-01T01:18:49;1.65;;;0.90;;
65463;SDS011;52063;45.110;9.870;2022-07-01T01:21:14;1.40;;;1.27;;
65463;SDS011;52063;45.110;9.870;2022-07-01T01:23:40;1.48;;;1.00;;
65463;SDS011;52063;45.110;9.870;2022-07-01T01:26:17;2.17;;;1.30;;
65463;SDS011;52063;45.110;9.870;2022-07-01T01:28:44;1.87;;;1.10;;
65463;SDS011;52063;45.110;9.870;2022-07-01T01:31:11;1.67;;;1.13;;
65463;SDS011;52063;45.110;9.870;2022-07-01T01:33:37;1.93;;;1.20;;
65463;SDS011;52063;45.110;9.870;2022-07-01T01:36:04;2.03;;;1.10;;
65463;SDS011;52063;45.110;9.870;2022-07-01T01:38:32;1.65;;;1.40;;
65463;SDS011;52063;45.110;9.870;2022-07-01T01:41:04;1.70;;;1.10;;
65463;SDS011;52063;45.110;9.870;2022-07-01T01:43:29;1.65;;;1.25;;
65463;SDS011;52063;45.110;9.870;2022-07-01T01:45:55;3.80;;;1.00;;
65463;SDS011;52063;45.110;9.870;2022-07-01T01:48:20;2.17;;;0.95;;
65463;SDS011;52063;45.110;9.870;2022-07-01T01:50:46;1.73;;;1.40;;
65463;SDS011;52063;45.110;9.870;2022-07-01T01:53:12;2.13;;;1.30;;
65463;SDS011;52063;45.110;9.870;2022-07-01T01:55:37;1.60;;;1.13;;
65463;SDS011;52063;45.110;9.870;2022-07-01T01:58:03;3.37;;;1.17;;
65463;SDS011;52063;45.110;9.870;2022-07-01T02:00:28;1.67;;;0.90;;
65463;SDS011;52063;45.110;9.870;2022-07-01T02:02:54;1.92;;;1.27;;
65463;SDS011;52063;45.110;9.870;2022-07-01T02:05:21;1.30;;;1.10;;
65463;SDS011;52063;45.110;9.870;2022-07-01T02:07:46;1.38;;;0.98;;
65463;SDS011;52063;45.110;9.870;2022-07-01T02:10:12;1.30;;;1.00;;
65463;SDS011;52063;45.110;9.870;2022-07-01T02:12:37;2.00;;;1.38;;
65463;SDS011;52063;45.110;9.870;2022-07-01T02:15:03;1.80;;;1.10;;
65463;SDS011;52063;45.110;9.870;2022-07-01T02:17:29;2.78;;;1.10;;
65463;SDS011;52063;45.110;9.870;2022-07-01T02:19:54;4.00;;;1.13;;
65463;SDS011;52063;45.110;9.870;2022-07-01T02:22:20;2.70;;;1.10;;
65463;SDS011;52063;45.110;9.870;2022-07-01T02:24:45;4.33;;;1.30;;
65463;SDS011;52063;45.110;9.870;2022-07-01T02:27:11;1.57;;;1.07;;
65463;SDS011;52063;45.110;9.870;2022-07-01T02:29:37;2.33;;;1.20;;
65463;SDS011;52063;45.110;9.870;2022-07-01T02:32:03;1.20;;;1.10;;
65463;SDS011;52063;45.110;9.870;2022-07-01T02:34:29;1.52;;;1.00;;
65463;SDS011;52063;45.110;9.870;2022-07-01T02:36:55;3.47;;;1.30;;
65463;SDS011;52063;45.110;9.870;2022-07-01T02:39:21;1.93;;;1.30;;
65463;SDS011;52063;45.110;9.870;2022-07-01T02:41:47;2.05;;;1.20;;
65463;SDS011;52063;45.110;9.870;2022-07-01T02:44:31;1.58;;;1.15;;
65463;SDS011;52063;45.110;9.870;2022-07-01T02:46:56;1.57;;;1.17;;
65463;SDS011;52063;45.110;9.870;2022-07-01T02:49:24;3.10;;;1.00;;
65463;SDS011;52063;45.110;9.870;2022-07-01T02:51:49;1.10;;;0.83;;
65463;SDS011;52063;45.110;9.870;2022-07-01T02:54:15;1.65;;;1.00;;
65463;SDS011;52063;45.110;9.870;2022-07-01T02:56:41;1.55;;;1.25;;
65463;SDS011;52063;45.110;9.870;2022-07-01T02:59:07;1.10;;;1.00;;
65463;SDS011;52063;45.110;9.870;2022-07-01T03:01:32;1.90;;;1.20;;
65463;SDS011;52063;45.110;9.870;2022-07-01T03:03:58;1.13;;;1.00;;
65463;SDS011;52063;45.110;9.870;2022-07-01T03:06:23;1.20;;;1.00;;
65463;SDS011;52063;45.110;9.870;2022-07-01T03:08:49;1.95;;;1.20;;
65463;SDS011;52063;45.110;9.870;2022-07-01T03:11:14;1.57;;;0.97;;
65463;SDS011;52063;45.110;9.870;2022-07-01T03:13:40;1.37;;;1.27;;
65463;SDS011;52063;45.110;9.870;2022-07-01T03:16:07;1.23;;;0.80;;
65463;SDS011;52063;45.110;9.870;2022-07-01T03:18:43;2.17;;;0.90;;
65463;SDS011;52063;45.110;9.870;2022-07-01T03:21:09;1.63;;;0.90;;
65463;SDS011;52063;45.110;9.870;2022-07-01T03:23:34;2.53;;;1.00;;
65463;SDS011;52063;45.110;9.870;2022-07-01T03:26:00;2.63;;;0.90;;
65463;SDS011;52063;45.110;9.870;2022-07-01T03:28:25;1.83;;;0.90;;
65463;SDS011;52063;45.110;9.870;2022-07-01T03:30:51;2.17;;;0.90;;
65463;SDS011;52063;45.110;9.870;2022-07-01T03:33:16;1.77;;;0.93;;
65463;SDS011;52063;45.110;9.870;2022-07-01T03:35:42;2.03;;;0.90;;
65463;SDS011;52063;45.110;9.870;2022-07-01T03:38:11;2.42;;;1.20;;
65463;SDS011;52063;45.110;9.870;2022-07-01T03:40:37;3.35;;;1.02;;
65463;SDS011;52063;45.110;9.870;2022-07-01T03:43:04;3.70;;;1.02;;
65463;SDS011;52063;45.110;9.870;2022-07-01T03:45:29;4.93;;;1.00;;
65463;SDS011;52063;45.110;9.870;2022-07-01T03:47:55;3.92;;;1.02;;
65463;SDS011;52063;45.110;9.870;2022-07-01T03:50:22;4.93;;;0.73;;
65463;SDS011;52063;45.110;9.870;2022-07-01T03:52:48;2.57;;;0.80;;
65463;SDS011;52063;45.110;9.870;2022-07-01T03:55:34;1.30;;;0.70;;
65463;SDS011;52063;45.110;9.870;2022-07-01T03:57:59;2.05;;;0.90;;
65463;SDS011;52063;45.110;9.870;2022-07-01T04:00:25;1.77;;;0.70;;
65463;SDS011;52063;45.110;9.870;2022-07-01T04:02:50;1.27;;;0.77;;
65463;SDS011;52063;45.110;9.870;2022-07-01T04:05:16;3.97;;;1.00;;
65463;SDS011;52063;45.110;9.870;2022-07-01T04:07:41;1.70;;;1.00;;
65463;SDS011;52063;45.110;9.870;2022-07-01T04:10:07;2.97;;;0.80;;
65463;SDS011;52063;45.110;9.870;2022-07-01T04:12:32;1.73;;;0.90;;
65463;SDS011;52063;45.110;9.870;2022-07-01T04:14:58;2.70;;;0.80;;
65463;SDS011;52063;45.110;9.870;2022-07-01T04:17:24;2.90;;;0.82;;
65463;SDS011;52063;45.110;9.870;2022-07-01T04:19:50;2.05;;;0.88;;
65463;SDS011;52063;45.110;9.870;2022-07-01T04:22:16;1.33;;;0.80;;
65463;SDS011;52063;45.110;9.870;2022-07-01T04:25:01;3.97;;;1.00;;
65463;SDS011;52063;45.110;9.870;2022-07-01T04:27:29;3.10;;;0.80;;
65463;SDS011;52063;45.110;9.870;2022-07-01T04:29:55;2.20;;;0.93;;
65463;SDS011;52063;45.110;9.870;2022-07-01T04:32:21;5.22;;;0.93;;
65463;SDS011;52063;45.110;9.870;2022-07-01T04:34:47;3.83;;;1.00;;
65463;SDS011;52063;45.110;9.870;2022-07-01T04:37:12;3.58;;;0.90;;
65463;SDS011;52063;45.110;9.870;2022-07-01T04:39:38;4.17;;;0.70;;
65463;SDS011;52063;45.110;9.870;2022-07-01T04:42:03;6.57;;;1.00;;
65463;SDS011;52063;45.110;9.870;2022-07-01T04:44:33;2.17;;;1.00;;
65463;SDS011;52063;45.110;9.870;2022-07-01T04:46:59;9.50;;;1.00;;
65463;SDS011;52063;45.110;9.870;2022-07-01T04:49:26;5.93;;;1.17;;
65463;SDS011;52063;45.110;9.870;2022-07-01T04:51:52;3.65;;;0.90;;
65463;SDS011;52063;45.110;9.870;2022-07-01T04:54:18;3.67;;;1.00;;
65463;SDS011;52063;45.110;9.870;2022-07-01T04:56:44;2.27;;;0.87;;
65463;SDS011;52063;45.110;9.870;2022-07-01T04:59:10;4.72;;;1.08;;
65463;SDS011;52063;45.110;9.870;2022-07-01T05:01:36;2.05;;;0.82;;
65463;SDS011;52063;45.110;9.870;2022-07-01T05:04:02;4.10;;;0.80;;
65463;SDS011;52063;45.110;9.870;2022-07-01T05:06:27;4.43;;;1.10;;
65463;SDS011;52063;45.110;9.870;2022-07-01T05:08:53;5.40;;;0.80;;
65463;SDS011;52063;45.110;9.870;2022-07-01T05:11:18;2.73;;;0.87;;
65463;SDS011;52063;45.110;9.870;2022-07-01T05:13:44;1.50;;;0.80;;
65463;SDS011;52063;45.110;9.870;2022-07-01T05:16:09;1.90;;;0.90;;
65463;SDS011;52063;45.110;9.870;2022-07-01T05:18:36;5.18;;;0.70;;
65463;SDS011;52063;45.110;9.870;2022-07-01T05:21:20;2.40;;;0.73;;
65463;SDS011;52063;45.110;9.870;2022-07-01T05:24:04;2.45;;;0.80;;
65463;SDS011;52063;45.110;9.870;2022-07-01T05:26:31;1.77;;;0.70;;
65463;SDS011;52063;45.110;9.870;2022-07-01T05:28:56;2.70;;;0.70;;
65463;SDS011;52063;45.110;9.870;2022-07-01T05:31:22;7.60;;;0.80;;
65463;SDS011;52063;45.110;9.870;2022-07-01T05:33:47;3.20;;;0.80;;
65463;SDS011;52063;45.110;9.870;2022-07-01T05:36:13;2.47;;;0.65;;
65463;SDS011;52063;45.110;9.870;2022-07-01T05:38:39;2.03;;;0.70;;
65463;SDS011;52063;45.110;9.870;2022-07-01T05:41:04;1.33;;;0.73;;
65463;SDS011;52063;45.110;9.870;2022-07-01T05:43:30;1.80;;;0.77;;
65463;SDS011;52063;45.110;9.870;2022-07-01T05:45:56;1.00;;;0.50;;
65463;SDS011;52063;45.110;9.870;2022-07-01T05:48:22;4.30;;;0.60;;
65463;SDS011;52063;45.110;9.870;2022-07-01T05:50:48;6.07;;;0.70;;
65463;SDS011;52063;45.110;9.870;2022-07-01T05:53:15;2.22;;;0.70;;
65463;SDS011;52063;45.110;9.870;2022-07-01T05:55:42;1.65;;;0.80;;
65463;SDS011;52063;45.110;9.870;2022-07-01T05:58:09;3.73;;;0.70;;
65463;SDS011;52063;45.110;9.870;2022-07-01T06:00:36;2.00;;;0.60;;
65463;SDS011;52063;45.110;9.870;2022-07-01T06:03:01;2.10;;;0.80;;
65463;SDS011;52063;45.110;9.870;2022-07-01T06:05:27;1.40;;;0.80;;
65463;SDS011;52063;45.110;9.870;2022-07-01T06:07:52;4.65;;;0.60;;
65463;SDS011;52063;45.110;9.870;2022-07-01T06:10:18;2.40;;;1.00;;
65463;SDS011;52063;45.110;9.870;2022-07-01T06:12:44;3.87;;;0.80;;
65463;SDS011;52063;45.110;9.870;2022-07-01T06:15:10;5.57;;;1.00;;
65463;SDS011;52063;45.110;9.870;2022-07-01T06:17:39;2.13;;;0.68;;
65463;SDS011;52063;45.110;9.870;2022-07-01T06:20:06;1.25;;;0.65;;
65463;SDS011;52063;45.110;9.870;2022-07-01T06:22:32;4.50;;;0.90;;
65463;SDS011;52063;45.110;9.870;2022-07-01T06:24:59;2.23;;;0.70;;
65463;SDS011;52063;45.110;9.870;2022-07-01T06:27:25;8.50;;;0.93;;
65463;SDS011;52063;45.110;9.870;2022-07-01T06:29:51;3.42;;;0.90;;
65463;SDS011;52063;45.110;9.870;2022-07-01T06:32:17;2.83;;;0.70;;
65463;SDS011;52063;45.110;9.870;2022-07-01T06:34:43;5.70;;;1.10;;
65463;SDS011;52063;45.110;9.870;2022-07-01T06:37:08;8.33;;;1.07;;
65463;SDS011;52063;45.110;9.870;2022-07-01T06:39:34;4.23;;;1.60;;
65463;SDS011;52063;45.110;9.870;2022-07-01T06:41:59;7.43;;;1.27;;
65463;SDS011;52063;45.110;9.870;2022-07-01T06:44:25;8.90;;;1.20;;
65463;SDS011;52063;45.110;9.870;2022-07-01T06:46:52;4.38;;;1.38;;
65463;SDS011;52063;45.110;9.870;2022-07-01T06:49:17;4.03;;;1.60;;
65463;SDS011;52063;45.110;9.870;2022-07-01T06:51:43;3.72;;;1.48;;
65463;SDS011;52063;45.110;9.870;2022-07-01T06:54:08;4.67;;;1.50;;
65463;SDS011;52063;45.110;9.870;2022-07-01T06:56:34;2.42;;;1.25;;
65463;SDS011;52063;45.110;9.870;2022-07-01T06:59:00;6.60;;;1.60;;
65463;SDS011;52063;45.110;9.870;2022-07-01T07:01:27;7.45;;;1.40;;
65463;SDS011;52063;45.110;9.870;2022-07-01T07:03:59;8.13;;;1.73;;
65463;SDS011;52063;45.110;9.870;2022-07-01T07:06:24;3.07;;;1.33;;
65463;SDS011;52063;45.110;9.870;2022-07-01T07:08:50;6.20;;;1.60;;
65463;SDS011;52063;45.110;9.870;2022-07-01T07:11:16;3.75;;;1.88;;
65463;SDS011;52063;45.110;9.870;2022-07-01T07:13:44;9.90;;;2.15;;
65463;SDS011;52063;45.110;9.870;2022-07-01T07:16:10;5.83;;;1.30;;
65463;SDS011;52063;45.110;9.870;2022-07-01T07:18:36;5.75;;;1.63;;
65463;SDS011;52063;45.110;9.870;2022-07-01T07:21:02;6.03;;;1.43;;
65463;SDS011;52063;45.110;9.870;2022-07-01T07:23:29;6.13;;;1.70;;
65463;SDS011;52063;45.110;9.870;2022-07-01T07:25:54;4.37;;;1.43;;
65463;SDS011;52063;45.110;9.870;2022-07-01T07:28:20;4.75;;;1.40;;
65463;SDS011;52063;45.110;9.870;2022-07-01T07:30:46;6.55;;;2.10;;
65463;SDS011;52063;45.110;9.870;2022-07-01T07:33:12;6.10;;;1.20;;
65463;SDS011;52063;45.110;9.870;2022-07-01T07:35:37;5.60;;;2.23;;
65463;SDS011;52063;45.110;9.870;2022-07-01T07:38:04;6.50;;;1.63;;
65463;SDS011;52063;45.110;9.870;2022-07-01T07:40:29;5.65;;;2.05;;
65463;SDS011;52063;45.110;9.870;2022-07-01T07:42:55;7.37;;;1.60;;
65463;SDS011;52063;45.110;9.870;2022-07-01T07:45:21;6.43;;;2.00;;
65463;SDS011;52063;45.110;9.870;2022-07-01T07:47:47;4.57;;;2.03;;
65463;SDS011;52063;45.110;9.870;2022-07-01T07:50:13;5.60;;;1.80;;
65463;SDS011;52063;45.110;9.870;2022-07-01T07:52:40;7.05;;;2.05;;
65463;SDS011;52063;45.110;9.870;2022-07-01T07:55:06;3.47;;;1.80;;
65463;SDS011;52063;45.110;9.870;2022-07-01T07:57:33;11.55;;;2.10;;
65463;SDS011;52063;45.110;9.870;2022-07-01T08:00:00;5.95;;;1.85;;
65463;SDS011;52063;45.110;9.870;2022-07-01T08:02:37;11.13;;;1.70;;
65463;SDS011;52063;45.110;9.870;2022-07-01T08:05:04;8.55;;;1.98;;
65463;SDS011;52063;45.110;9.870;2022-07-01T08:07:34;3.53;;;1.60;;
65463;SDS011;52063;45.110;9.870;2022-07-01T08:10:00;4.43;;;1.60;;
65463;SDS011;52063;45.110;9.870;2022-07-01T08:12:26;4.90;;;1.30;;
65463;SDS011;52063;45.110;9.870;2022-07-01T08:14:51;6.25;;;1.38;;
65463;SDS011;52063;45.110;9.870;2022-07-01T08:17:17;2.83;;;1.33;;
65463;SDS011;52063;45.110;9.870;2022-07-01T08:19:42;5.07;;;1.20;;
65463;SDS011;52063;45.110;9.870;2022-07-01T08:22:08;2.67;;;1.08;;
65463;SDS011;52063;45.110;9.870;2022-07-01T08:24:33;5.50;;;1.30;;
65463;SDS011;52063;45.110;9.870;2022-07-01T08:27:00;5.35;;;1.42;;
65463;SDS011;52063;45.110;9.870;2022-07-01T08:29:26;4.53;;;1.20;;
65463;SDS011;52063;45.110;9.870;2022-07-01T08:31:51;2.00;;;1.13;;
65463;SDS011;52063;45.110;9.870;2022-07-01T08:34:16;6.13;;;1.20;;
65463;SDS011;52063;45.110;9.870;2022-07-01T08:36:43;3.88;;;1.17;;
65463;SDS011;52063;45.110;9.870;2022-07-01T08:39:08;2.50;;;1.00;;
65463;SDS011;52063;45.110;9.870;2022-07-01T08:41:34;6.67;;;1.30;;
65463;SDS011;52063;45.110;9.870;2022-07-01T08:43:59;2.27;;;1.33;;
65463;SDS011;52063;45.110;9.870;2022-07-01T08:46:28;8.60;;;1.35;;
65463;SDS011;52063;45.110;9.870;2022-07-01T08:48:53;3.83;;;1.30;;
65463;SDS011;52063;45.110;9.870;2022-07-01T08:51:19;3.90;;;1.38;;
65463;SDS011;52063;45.110;9.870;2022-07-01T08:53:45;4.53;;;1.30;;
65463;SDS011;52063;45.110;9.870;2022-07-01T08:56:10;5.07;;;1.52;;
65463;SDS011;52063;45.110;9.870;2022-07-01T08:58:55;4.97;;;1.45;;
65463;SDS011;52063;45.110;9.870;2022-07-01T09:01:22;4.57;;;1.40;;
65463;SDS011;52063;45.110;9.870;2022-07-01T09:03:49;3.03;;;1.10;;
65463;SDS011;52063;45.110;9.870;2022-07-01T09:06:36;4.85;;;1.20;;
65463;SDS011;52063;45.110;9.870;2022-07-01T09:09:20;2.22;;;1.30;;
65463;SDS011;52063;45.110;9.870;2022-07-01T09:11:54;3.57;;;1.10;;
65463;SDS011;52063;45.110;9.870;2022-07-01T09:14:21;3.08;;;0.90;;
65463;SDS011;52063;45.110;9.870;2022-07-01T09:16:49;3.13;;;1.27;;
65463;SDS011;52063;45.110;9.870;2022-07-01T09:19:17;5.95;;;1.27;;
65463;SDS011;52063;45.110;9.870;2022-07-01T09:21:54;5.35;;;1.20;;
65463;SDS011;52063;45.110;9.870;2022-07-01T09:26:55;3.33;;;1.30;;
65463;SDS011;52063;45.110;9.870;2022-07-01T09:29:28;4.35;;;1.23;;
65463;SDS011;52063;45.110;9.870;2022-07-01T09:32:02;5.78;;;1.08;;
65463;SDS011;52063;45.110;9.870;2022-07-01T09:34:33;4.22;;;1.48;;
65463;SDS011;52063;45.110;9.870;2022-07-01T09:37:05;6.00;;;1.20;;
65463;SDS011;52063;45.110;9.870;2022-07-01T09:39:41;4.05;;;1.00;;
65463;SDS011;52063;45.110;9.870;2022-07-01T09:42:10;7.15;;;1.13;;
65463;SDS011;52063;45.110;9.870;2022-07-01T09:44:40;4.10;;;1.40;;
65463;SDS011;52063;45.110;9.870;2022-07-01T09:47:28;5.50;;;1.10;;
65463;SDS011;52063;45.110;9.870;2022-07-01T09:49:55;6.57;;;1.30;;
65463;SDS011;52063;45.110;9.870;2022-07-01T09:52:21;4.63;;;1.30;;
65463;SDS011;52063;45.110;9.870;2022-07-01T09:54:48;5.07;;;1.50;;
65463;SDS011;52063;45.110;9.870;2022-07-01T09:57:14;5.07;;;1.35;;
65463;SDS011;52063;45.110;9.870;2022-07-01T09:59:41;9.02;;;1.50;;
65463;SDS011;52063;45.110;9.870;2022-07-01T10:02:10;4.93;;;1.25;;
65463;SDS011;52063;45.110;9.870;2022-07-01T10:04:36;4.33;;;1.10;;
65463;SDS011;52063;45.110;9.870;2022-07-01T10:10:16;6.45;;;1.20;;
65463;SDS011;52063;45.110;9.870;2022-07-01T10:12:46;6.65;;;1.27;;
65463;SDS011;52063;45.110;9.870;2022-07-01T10:15:16;9.10;;;1.23;;
65463;SDS011;52063;45.110;9.870;2022-07-01T10:17:44;4.77;;;1.50;;
65463;SDS011;52063;45.110;9.870;2022-07-01T10:20:17;4.65;;;1.42;;
65463;SDS011;52063;45.110;9.870;2022-07-01T10:22:44;3.22;;;1.27;;
65463;SDS011;52063;45.110;9.870;2022-07-01T10:28:23;4.53;;;1.40;;
65463;SDS011;52063;45.110;9.870;2022-07-01T10:31:00;6.37;;;1.77;;
65463;SDS011;52063;45.110;9.870;2022-07-01T10:39:20;5.25;;;1.65;;
65463;SDS011;52063;45.110;9.870;2022-07-01T10:44:24;10.37;;;1.60;;
65463;SDS011;52063;45.110;9.870;2022-07-01T10:46:53;6.40;;;1.63;;
65463;SDS011;52063;45.110;9.870;2022-07-01T10:52:00;4.18;;;1.30;;
65463;SDS011;52063;45.110;9.870;2022-07-01T10:57:19;4.13;;;1.60;;
65463;SDS011;52063;45.110;9.870;2022-07-01T10:59:50;5.60;;;1.80;;
65463;SDS011;52063;45.110;9.870;2022-07-01T11:02:32;4.22;;;1.67;;
65463;SDS011;52063;45.110;9.870;2022-07-01T11:05:09;3.17;;;1.50;;
65463;SDS011;52063;45.110;9.870;2022-07-01T11:07:37;4.82;;;1.50;;
65463;SDS011;52063;45.110;9.870;2022-07-01T11:10:05;5.72;;;1.63;;
65463;SDS011;52063;45.110;9.870;2022-07-01T11:12:32;4.30;;;1.65;;
65463;SDS011;52063;45.110;9.870;2022-07-01T11:14:58;4.95;;;1.63;;
65463;SDS011;52063;45.110;9.870;2022-07-01T11:17:26;4.70;;;1.50;;
65463;SDS011;52063;45.110;9.870;2022-07-01T11:19:53;5.95;;;1.50;;
65463;SDS011;52063;45.110;9.870;2022-07-01T11:22:23;3.53;;;1.42;;
65463;SDS011;52063;45.110;9.870;2022-07-01T11:24:55;4.20;;;1.17;;
65463;SDS011;52063;45.110;9.870;2022-07-01T11:27:22;2.85;;;1.42;;
65463;SDS011;52063;45.110;9.870;2022-07-01T11:29:55;5.23;;;1.10;;
65463;SDS011;52063;45.110;9.870;2022-07-01T11:32:28;3.13;;;1.38;;
65463;SDS011;52063;45.110;9.870;2022-07-01T11:34:56;2.22;;;1.40;;
65463;SDS011;52063;45.110;9.870;2022-07-01T11:37:22;3.10;;;1.10;;
65463;SDS011;52063;45.110;9.870;2022-07-01T11:40:07;3.27;;;1.30;;
65463;SDS011;52063;45.110;9.870;2022-07-01T11:42:34;4.60;;;1.38;;
65463;SDS011;52063;45.110;9.870;2022-07-01T11:45:00;3.67;;;1.20;;
65463;SDS011;52063;45.110;9.870;2022-07-01T11:47:26;3.30;;;1.50;;
65463;SDS011;52063;45.110;9.870;2022-07-01T11:49:52;6.15;;;1.40;;
65463;SDS011;52063;45.110;9.870;2022-07-01T11:52:18;6.47;;;1.50;;
65463;SDS011;52063;45.110;9.870;2022-07-01T11:54:46;4.20;;;0.90;;
65463;SDS011;52063;45.110;9.870;2022-07-01T11:59:47;3.80;;;1.52;;
65463;SDS011;52063;45.110;9.870;2022-07-01T12:02:13;3.00;;;1.13;;
65463;SDS011;52063;45.110;9.870;2022-07-01T12:04:40;3.50;;;1.38;;
65463;SDS011;52063;45.110;9.870;2022-07-01T12:07:07;4.15;;;1.00;;
65463;SDS011;52063;45.110;9.870;2022-07-01T12:09:34;2.47;;;1.42;;
65463;SDS011;52063;45.110;9.870;2022-07-01T12:12:00;5.20;;;1.33;;
65463;SDS011;52063;45.110;9.870;2022-07-01T12:14:32;2.60;;;1.40;;
65463;SDS011;52063;45.110;9.870;2022-07-01T12:17:00;5.03;;;1.45;;
65463;SDS011;52063;45.110;9.870;2022-07-01T12:22:08;3.10;;;1.30;;
65463;SDS011;52063;45.110;9.870;2022-07-01T12:24:35;3.47;;;1.13;;
65463;SDS011;52063;45.110;9.870;2022-07-01T12:27:05;3.92;;;1.30;;
65463;SDS011;52063;45.110;9.870;2022-07-01T12:32:13;1.52;;;1.15;;
65463;SDS011;52063;45.110;9.870;2022-07-01T12:34:41;4.63;;;1.75;;
65463;SDS011;52063;45.110;9.870;2022-07-01T12:37:13;6.43;;;1.60;;
65463;SDS011;52063;45.110;9.870;2022-07-01T12:44:54;4.88;;;1.55;;
65463;SDS011;52063;45.110;9.870;2022-07-01T12:52:42;5.13;;;1.85;;
65463;SDS011;52063;45.110;9.870;2022-07-01T12:55:15;4.75;;;1.52;;
65463;SDS011;52063;45.110;9.870;2022-07-01T12:57:42;3.60;;;1.65;;
65463;SDS011;52063;45.110;9.870;2022-07-01T13:00:08;3.63;;;1.53;;
65463;SDS011;52063;45.110;9.870;2022-07-01T13:02:34;4.50;;;1.27;;
65463;SDS011;52063;45.110;9.870;2022-07-01T13:04:59;4.47;;;1.40;;
65463;SDS011;52063;45.110;9.870;2022-07-01T13:07:25;4.38;;;1.42;;
65463;SDS011;52063;45.110;9.870;2022-07-01T13:09:50;4.67;;;1.60;;
65463;SDS011;52063;45.110;9.870;2022-07-01T13:12:16;6.30;;;1.30;;
65463;SDS011;52063;45.110;9.870;2022-07-01T13:14:41;4.78;;;1.60;;
65463;SDS011;52063;45.110;9.870;2022-07-01T13:17:07;3.30;;;1.33;;
65463;SDS011;52063;45.110;9.870;2022-07-01T13:19:32;3.67;;;1.50;;
65463;SDS011;52063;45.110;9.870;2022-07-01T13:22:00;3.37;;;1.40;;
65463;SDS011;52063;45.110;9.870;2022-07-01T13:24:29;4.32;;;1.35;;
65463;SDS011;52063;45.110;9.870;2022-07-01T13:26:55;2.60;;;1.42;;
65463;SDS011;52063;45.110;9.870;2022-07-01T13:29:20;4.40;;;1.50;;
65463;SDS011;52063;45.110;9.870;2022-07-01T13:31:46;3.83;;;1.20;;
65463;SDS011;52063;45.110;9.870;2022-07-01T13:34:11;2.67;;;1.43;;
65463;SDS011;52063;45.110;9.870;2022-07-01T13:36:36;5.13;;;1.13;;
65463;SDS011;52063;45.110;9.870;2022-07-01T13:39:02;5.27;;;1.60;;
65463;SDS011;52063;45.110;9.870;2022-07-01T13:41:28;4.93;;;1.50;;
65463;SDS011;52063;45.110;9.870;2022-07-01T13:43:53;2.07;;;1.30;;
65463;SDS011;52063;45.110;9.870;2022-07-01T13:46:18;2.80;;;1.47;;
65463;SDS011;52063;45.110;9.870;2022-07-01T13:48:44;3.80;;;1.50;;
65463;SDS011;52063;45.110;9.870;2022-07-01T13:51:10;3.38;;;1.60;;
65463;SDS011;52063;45.110;9.870;2022-07-01T13:53:36;3.73;;;1.40;;
65463;SDS011;52063;45.110;9.870;2022-07-01T13:56:01;10.93;;;1.52;;
65463;SDS011;52063;45.110;9.870;2022-07-01T13:58:27;2.90;;;1.50;;
65463;SDS011;52063;45.110;9.870;2022-07-01T14:00:53;3.08;;;1.58;;
65463;SDS011;52063;45.110;9.870;2022-07-01T14:03:19;4.30;;;1.37;;
65463;SDS011;52063;45.110;9.870;2022-07-01T14:05:44;4.27;;;1.60;;
65463;SDS011;52063;45.110;9.870;2022-07-01T14:08:10;4.38;;;1.60;;
65463;SDS011;52063;45.110;9.870;2022-07-01T14:10:35;2.70;;;1.10;;
65463;SDS011;52063;45.110;9.870;2022-07-01T14:13:03;6.10;;;1.40;;
65463;SDS011;52063;45.110;9.870;2022-07-01T14:15:30;4.73;;;1.37;;
65463;SDS011;52063;45.110;9.870;2022-07-01T14:17:55;6.00;;;1.23;;
65463;SDS011;52063;45.110;9.870;2022-07-01T14:20:21;4.15;;;1.50;;
65463;SDS011;52063;45.110;9.870;2022-07-01T14:22:46;2.93;;;1.33;;
65463;SDS011;52063;45.110;9.870;2022-07-01T14:25:12;6.47;;;1.70;;
65463;SDS011;52063;45.110;9.870;2022-07-01T14:27:37;5.80;;;1.25;;
65463;SDS011;52063;45.110;9.870;2022-07-01T14:30:03;1.87;;;1.13;;
65463;SDS011;52063;45.110;9.870;2022-07-01T14:32:31;7.90;;;1.38;;
65463;SDS011;52063;45.110;9.870;2022-07-01T14:34:56;6.27;;;1.60;;
65463;SDS011;52063;45.110;9.870;2022-07-01T14:37:22;4.35;;;1.35;;
65463;SDS011;52063;45.110;9.870;2022-07-01T14:39:47;2.97;;;1.17;;
65463;SDS011;52063;45.110;9.870;2022-07-01T14:42:16;3.22;;;1.20;;
65463;SDS011;52063;45.110;9.870;2022-07-01T14:44:41;3.53;;;1.50;;
65463;SDS011;52063;45.110;9.870;2022-07-01T14:47:07;3.83;;;1.30;;
65463;SDS011;52063;45.110;9.870;2022-07-01T14:49:32;2.80;;;0.98;;
65463;SDS011;52063;45.110;9.870;2022-07-01T14:52:01;7.32;;;1.40;;
65463;SDS011;52063;45.110;9.870;2022-07-01T14:54:28;7.57;;;1.23;;
65463;SDS011;52063;45.110;9.870;2022-07-01T14:56:53;3.58;;;1.35;;
65463;SDS011;52063;45.110;9.870;2022-07-01T14:59:18;2.77;;;1.40;;
65463;SDS011;52063;45.110;9.870;2022-07-01T15:01:44;3.13;;;1.57;;
65463;SDS011;52063;45.110;9.870;2022-07-01T15:04:09;1.93;;;1.40;;
65463;SDS011;52063;45.110;9.870;2022-07-01T15:06:35;2.83;;;1.60;;
65463;SDS011;52063;45.110;9.870;2022-07-01T15:09:00;4.00;;;1.20;;
65463;SDS011;52063;45.110;9.870;2022-07-01T15:11:26;3.20;;;1.57;;
65463;SDS011;52063;45.110;9.870;2022-07-01T15:13:51;5.23;;;1.73;;
65463;SDS011;52063;45.110;9.870;2022-07-01T15:16:16;4.70;;;1.70;;
65463;SDS011;52063;45.110;9.870;2022-07-01T15:18:43;2.45;;;1.40;;
65463;SDS011;52063;45.110;9.870;2022-07-01T15:21:09;2.50;;;1.50;;
65463;SDS011;52063;45.110;9.870;2022-07-01T15:23:34;5.80;;;1.30;;
65463;SDS011;52063;45.110;9.870;2022-07-01T15:26:00;2.97;;;1.50;;
65463;SDS011;52063;45.110;9.870;2022-07-01T15:28:25;2.23;;;1.20;;